Tropical Cyclones
[Index]
Main Index Home Page Stock Weather Photos Extreme Storms Discussion Storm News and Storm Chasing Reports Tropical Cyclones / Hurricanes / Typhoons Weather Data and Links Wild Fires / Bushfires Weather Observation Techniques Weather Picture Catalogue Tornado Pictures and Reports Stock Video Footage and DVDs for sale
Season 1998-1999 Tropical Cyclone ZELIA Track Map
Season 1998-1999 Summaries: [BoM-AU] [JTWC-AU] [JTWC-SIO] [JTWC-SPAC] [JTWC-SH]
<<- Previous TC | BoM 1998-1999 Season | Next TC ->>

click for intensity scale information  Lat/long Grid: Show Hide

 Date Labels: Show Hide

Bureau of Meteorology Tropical Cyclone Data

Name: ZELIA
Number: 816 / 199899_01

07 Oct 1998 06:00 UTC to 10 Oct 1998 09:00 UTC

    date/time    lat    long    hPa   cat  kts
1998-10-07 06   11.3    93.0   1002         23          
1998-10-07 09   11.9    93.6   1000         27          
1998-10-07 12   12.4    93.8    999         29          
1998-10-07 15   12.9    94.0    998         29          
1998-10-07 18   13.2    94.0    996         33          
1998-10-07 21   13.5    94.1    995    1    35          
1998-10-08 00   13.9    94.2    994    1    35          
1998-10-08 03   14.2    94.4    993    1    37          
1998-10-08 06   14.4    94.6    992    1    39          
1998-10-08 09   14.6    94.8    990    1    41          
1998-10-08 12   14.7    95.0    990    1    41          
1998-10-08 15   14.8    95.1    990    1    41          
1998-10-08 18   14.9    95.2    992    1    39          
1998-10-08 21   14.9    95.3    992    1    39          
1998-10-09 00   14.8    95.4    994    1    35          
1998-10-09 03   14.7    95.5    996         33          
1998-10-09 06   14.6    95.6    998         29          
1998-10-09 09   14.5    95.8    999         29          
1998-10-09 12   14.5    96.0   1000         27          
1998-10-09 15   14.5    96.3   1001         25          
1998-10-09 18   14.5    96.5   1001         25          
1998-10-09 21   14.5    96.5   1002         23          
1998-10-10 00   14.4    96.2   1002         23          
1998-10-10 03   14.2    95.8   1003         23          
1998-10-10 06   14.0    95.5   1004         21          
1998-10-10 09   13.9    95.3   1005         19          
Winds are 10-min average.

Tropical cyclone tracks developed by Michael Bath using data from the Bureau of Meteorology and Google Maps.


[Australian Severe Weather index] [Copyright Notice] [Email Contacts] [Search This Site] [Privacy Policy]
Document: tropical_cyclone_zelia.htm Updated: 30 May 2013